sensor_id;sensor_type;location;lat;lon;timestamp;temperature;humidity
74368;DHT22;64991;41.090;-8.118;2023-02-23T00:02:30;16.80;77.40
74368;DHT22;64991;41.090;-8.118;2023-02-23T00:07:33;16.80;77.20
74368;DHT22;64991;41.090;-8.118;2023-02-23T00:12:37;16.80;77.50
74368;DHT22;64991;41.090;-8.118;2023-02-23T00:17:42;16.80;77.20
74368;DHT22;64991;41.090;-8.118;2023-02-23T00:22:48;16.70;77.20
74368;DHT22;64991;41.090;-8.118;2023-02-23T00:27:51;16.70;77.20
74368;DHT22;64991;41.090;-8.118;2023-02-23T00:32:57;16.70;77.10
74368;DHT22;64991;41.090;-8.118;2023-02-23T00:38:00;16.70;77.10
74368;DHT22;64991;41.090;-8.118;2023-02-23T00:43:04;16.70;77.20
74368;DHT22;64991;41.090;-8.118;2023-02-23T00:48:08;16.80;77.00
74368;DHT22;64991;41.090;-8.118;2023-02-23T00:53:12;16.70;77.20
74368;DHT22;64991;41.090;-8.118;2023-02-23T00:58:15;16.70;77.10
74368;DHT22;64991;41.090;-8.118;2023-02-23T01:03:20;16.70;77.10
74368;DHT22;64991;41.090;-8.118;2023-02-23T01:08:24;16.70;76.80
74368;DHT22;64991;41.090;-8.118;2023-02-23T01:13:28;16.70;76.90
74368;DHT22;64991;41.090;-8.118;2023-02-23T01:18:33;16.70;76.80
74368;DHT22;64991;41.090;-8.118;2023-02-23T01:23:37;16.70;76.90
74368;DHT22;64991;41.090;-8.118;2023-02-23T01:28:41;16.70;76.80
74368;DHT22;64991;41.090;-8.118;2023-02-23T01:33:46;16.60;76.60
74368;DHT22;64991;41.090;-8.118;2023-02-23T01:38:49;16.70;76.50
74368;DHT22;64991;41.090;-8.118;2023-02-23T01:43:56;16.60;76.60
74368;DHT22;64991;41.090;-8.118;2023-02-23T01:49:02;16.70;76.50
74368;DHT22;64991;41.090;-8.118;2023-02-23T01:54:06;16.60;76.30
74368;DHT22;64991;41.090;-8.118;2023-02-23T01:59:12;16.60;76.40
74368;DHT22;64991;41.090;-8.118;2023-02-23T02:04:18;16.60;76.20
74368;DHT22;64991;41.090;-8.118;2023-02-23T02:09:22;16.60;76.30
74368;DHT22;64991;41.090;-8.118;2023-02-23T02:14:29;16.70;76.30
74368;DHT22;64991;41.090;-8.118;2023-02-23T02:25:35;16.60;76.20
74368;DHT22;64991;41.090;-8.118;2023-02-23T02:30:55;16.60;76.10
74368;DHT22;64991;41.090;-8.118;2023-02-23T02:36:20;16.50;76.00
74368;DHT22;64991;41.090;-8.118;2023-02-23T02:41:32;16.60;75.80
74368;DHT22;64991;41.090;-8.118;2023-02-23T02:46:38;16.60;75.90
74368;DHT22;64991;41.090;-8.118;2023-02-23T02:51:43;16.60;75.90
74368;DHT22;64991;41.090;-8.118;2023-02-23T02:56:52;16.60;75.70
74368;DHT22;64991;41.090;-8.118;2023-02-23T03:01:58;16.60;75.60
74368;DHT22;64991;41.090;-8.118;2023-02-23T03:07:20;16.60;75.70
74368;DHT22;64991;41.090;-8.118;2023-02-23T03:12:48;16.60;75.70
74368;DHT22;64991;41.090;-8.118;2023-02-23T03:18:18;16.50;75.40
74368;DHT22;64991;41.090;-8.118;2023-02-23T03:23:48;16.70;75.70
74368;DHT22;64991;41.090;-8.118;2023-02-23T03:29:15;16.60;75.30
74368;DHT22;64991;41.090;-8.118;2023-02-23T03:34:39;16.60;75.60
74368;DHT22;64991;41.090;-8.118;2023-02-23T03:40:05;16.60;75.30
74368;DHT22;64991;41.090;-8.118;2023-02-23T03:45:30;16.60;75.30
74368;DHT22;64991;41.090;-8.118;2023-02-23T03:50:52;16.40;75.40
74368;DHT22;64991;41.090;-8.118;2023-02-23T03:56:14;16.50;75.00
74368;DHT22;64991;41.090;-8.118;2023-02-23T04:01:37;16.50;75.30
74368;DHT22;64991;41.090;-8.118;2023-02-23T04:06:59;16.40;75.00
74368;DHT22;64991;41.090;-8.118;2023-02-23T04:12:23;16.60;75.10
74368;DHT22;64991;41.090;-8.118;2023-02-23T04:17:47;16.40;75.00
74368;DHT22;64991;41.090;-8.118;2023-02-23T04:22:50;16.50;74.80
74368;DHT22;64991;41.090;-8.118;2023-02-23T04:27:54;16.50;74.90
74368;DHT22;64991;41.090;-8.118;2023-02-23T04:32:59;16.50;74.60
74368;DHT22;64991;41.090;-8.118;2023-02-23T04:38:02;16.40;74.70
74368;DHT22;64991;41.090;-8.118;2023-02-23T04:43:06;16.50;74.70
74368;DHT22;64991;41.090;-8.118;2023-02-23T04:48:12;16.40;74.80
74368;DHT22;64991;41.090;-8.118;2023-02-23T04:53:15;16.50;74.70
74368;DHT22;64991;41.090;-8.118;2023-02-23T04:58:19;16.50;74.30
74368;DHT22;64991;41.090;-8.118;2023-02-23T05:03:24;16.40;73.60
74368;DHT22;64991;41.090;-8.118;2023-02-23T05:08:27;16.40;74.20
74368;DHT22;64991;41.090;-8.118;2023-02-23T05:13:31;16.50;74.20
74368;DHT22;64991;41.090;-8.118;2023-02-23T05:18:36;16.40;74.00
74368;DHT22;64991;41.090;-8.118;2023-02-23T05:23:40;16.40;73.90
74368;DHT22;64991;41.090;-8.118;2023-02-23T05:28:43;16.40;73.80
74368;DHT22;64991;41.090;-8.118;2023-02-23T05:33:48;16.40;73.80
74368;DHT22;64991;41.090;-8.118;2023-02-23T05:38:52;16.30;74.00
74368;DHT22;64991;41.090;-8.118;2023-02-23T05:43:55;16.30;74.20
74368;DHT22;64991;41.090;-8.118;2023-02-23T05:49:00;16.30;73.80
74368;DHT22;64991;41.090;-8.118;2023-02-23T05:54:04;16.30;74.00
74368;DHT22;64991;41.090;-8.118;2023-02-23T05:59:08;16.20;74.00
74368;DHT22;64991;41.090;-8.118;2023-02-23T06:04:13;16.20;74.10
74368;DHT22;64991;41.090;-8.118;2023-02-23T06:09:17;16.20;74.00
74368;DHT22;64991;41.090;-8.118;2023-02-23T06:14:21;16.20;73.90
74368;DHT22;64991;41.090;-8.118;2023-02-23T06:19:26;16.30;73.60
74368;DHT22;64991;41.090;-8.118;2023-02-23T06:24:29;16.20;73.40
74368;DHT22;64991;41.090;-8.118;2023-02-23T06:29:33;16.20;73.60
74368;DHT22;64991;41.090;-8.118;2023-02-23T06:34:39;16.20;73.60
74368;DHT22;64991;41.090;-8.118;2023-02-23T06:39:42;16.20;73.80
74368;DHT22;64991;41.090;-8.118;2023-02-23T06:44:46;16.10;73.60
74368;DHT22;64991;41.090;-8.118;2023-02-23T06:49:50;16.10;73.60
74368;DHT22;64991;41.090;-8.118;2023-02-23T06:54:54;16.10;73.70
74368;DHT22;64991;41.090;-8.118;2023-02-23T06:59:57;16.10;73.20
74368;DHT22;64991;41.090;-8.118;2023-02-23T07:05:04;16.10;73.40
74368;DHT22;64991;41.090;-8.118;2023-02-23T07:10:08;16.10;73.60
74368;DHT22;64991;41.090;-8.118;2023-02-23T07:15:12;16.10;73.30
74368;DHT22;64991;41.090;-8.118;2023-02-23T07:20:20;16.10;73.40
74368;DHT22;64991;41.090;-8.118;2023-02-23T07:25:23;16.10;73.00
74368;DHT22;64991;41.090;-8.118;2023-02-23T07:30:27;16.10;73.20
74368;DHT22;64991;41.090;-8.118;2023-02-23T07:35:32;16.10;73.30
74368;DHT22;64991;41.090;-8.118;2023-02-23T07:40:35;16.00;73.10
74368;DHT22;64991;41.090;-8.118;2023-02-23T07:45:39;16.00;73.10
74368;DHT22;64991;41.090;-8.118;2023-02-23T07:50:44;16.10;73.00
74368;DHT22;64991;41.090;-8.118;2023-02-23T07:55:54;16.00;72.80
74368;DHT22;64991;41.090;-8.118;2023-02-23T08:00:57;16.10;72.50
74368;DHT22;64991;41.090;-8.118;2023-02-23T08:06:03;16.10;72.50
74368;DHT22;64991;41.090;-8.118;2023-02-23T08:11:06;16.10;72.70
74368;DHT22;64991;41.090;-8.118;2023-02-23T08:16:10;16.10;72.50
74368;DHT22;64991;41.090;-8.118;2023-02-23T08:21:15;16.10;72.60
74368;DHT22;64991;41.090;-8.118;2023-02-23T08:26:19;16.10;72.50
74368;DHT22;64991;41.090;-8.118;2023-02-23T08:31:22;16.20;71.70
74368;DHT22;64991;41.090;-8.118;2023-02-23T08:36:28;16.20;71.20
74368;DHT22;64991;41.090;-8.118;2023-02-23T08:41:32;16.20;71.10
74368;DHT22;64991;41.090;-8.118;2023-02-23T08:46:35;16.20;70.90
74368;DHT22;64991;41.090;-8.118;2023-02-23T08:51:40;16.20;70.80
74368;DHT22;64991;41.090;-8.118;2023-02-23T08:56:44;16.20;70.40
74368;DHT22;64991;41.090;-8.118;2023-02-23T09:01:47;16.20;70.50
74368;DHT22;64991;41.090;-8.118;2023-02-23T09:06:52;16.20;70.90
74368;DHT22;64991;41.090;-8.118;2023-02-23T09:11:56;16.30;70.50
74368;DHT22;64991;41.090;-8.118;2023-02-23T09:17:00;16.30;70.70
74368;DHT22;64991;41.090;-8.118;2023-02-23T09:22:06;16.30;70.50
74368;DHT22;64991;41.090;-8.118;2023-02-23T09:27:09;16.30;70.50
74368;DHT22;64991;41.090;-8.118;2023-02-23T09:32:13;16.30;70.20
74368;DHT22;64991;41.090;-8.118;2023-02-23T09:37:18;16.40;70.30
74368;DHT22;64991;41.090;-8.118;2023-02-23T09:42:27;16.40;70.30
74368;DHT22;64991;41.090;-8.118;2023-02-23T09:47:39;16.40;70.50
74368;DHT22;64991;41.090;-8.118;2023-02-23T09:52:52;16.30;70.30
74368;DHT22;64991;41.090;-8.118;2023-02-23T09:58:01;16.30;70.40
74368;DHT22;64991;41.090;-8.118;2023-02-23T10:03:16;16.30;69.90
74368;DHT22;64991;41.090;-8.118;2023-02-23T10:08:27;16.30;70.00
74368;DHT22;64991;41.090;-8.118;2023-02-23T10:13:37;16.30;70.70
74368;DHT22;64991;41.090;-8.118;2023-02-23T10:18:48;16.30;70.30
74368;DHT22;64991;41.090;-8.118;2023-02-23T10:23:59;16.30;70.50
74368;DHT22;64991;41.090;-8.118;2023-02-23T10:29:06;16.20;70.60
74368;DHT22;64991;41.090;-8.118;2023-02-23T10:34:21;16.20;70.60
74368;DHT22;64991;41.090;-8.118;2023-02-23T10:39:27;16.30;70.90
74368;DHT22;64991;41.090;-8.118;2023-02-23T10:44:31;16.30;70.50
74368;DHT22;64991;41.090;-8.118;2023-02-23T10:49:38;16.20;70.40
74368;DHT22;64991;41.090;-8.118;2023-02-23T10:54:45;16.30;70.60
74368;DHT22;64991;41.090;-8.118;2023-02-23T11:00:00;16.30;70.50
74368;DHT22;64991;41.090;-8.118;2023-02-23T11:05:13;16.20;71.80
74368;DHT22;64991;41.090;-8.118;2023-02-23T11:10:32;16.30;71.20
74368;DHT22;64991;41.090;-8.118;2023-02-23T11:15:36;16.30;70.90
74368;DHT22;64991;41.090;-8.118;2023-02-23T11:20:51;16.30;71.10
74368;DHT22;64991;41.090;-8.118;2023-02-23T11:25:57;16.20;71.80
74368;DHT22;64991;41.090;-8.118;2023-02-23T11:31:03;16.20;71.70
74368;DHT22;64991;41.090;-8.118;2023-02-23T11:36:15;16.20;71.10
74368;DHT22;64991;41.090;-8.118;2023-02-23T11:41:22;16.20;71.90
74368;DHT22;64991;41.090;-8.118;2023-02-23T11:46:26;16.30;71.60
74368;DHT22;64991;41.090;-8.118;2023-02-23T11:51:32;16.30;71.80
74368;DHT22;64991;41.090;-8.118;2023-02-23T11:56:37;16.30;71.40
74368;DHT22;64991;41.090;-8.118;2023-02-23T12:01:41;16.30;70.20
74368;DHT22;64991;41.090;-8.118;2023-02-23T12:06:46;16.30;70.80
74368;DHT22;64991;41.090;-8.118;2023-02-23T12:11:53;16.30;71.40
74368;DHT22;64991;41.090;-8.118;2023-02-23T12:17:04;16.30;72.10
74368;DHT22;64991;41.090;-8.118;2023-02-23T12:22:10;16.30;72.00
74368;DHT22;64991;41.090;-8.118;2023-02-23T12:27:18;16.30;71.70
74368;DHT22;64991;41.090;-8.118;2023-02-23T12:32:25;16.20;71.60
74368;DHT22;64991;41.090;-8.118;2023-02-23T12:37:33;16.30;70.90
74368;DHT22;64991;41.090;-8.118;2023-02-23T12:42:44;16.30;71.70
74368;DHT22;64991;41.090;-8.118;2023-02-23T12:47:53;16.30;70.20
74368;DHT22;64991;41.090;-8.118;2023-02-23T12:53:05;16.30;70.60
74368;DHT22;64991;41.090;-8.118;2023-02-23T12:58:16;16.30;70.60
74368;DHT22;64991;41.090;-8.118;2023-02-23T13:03:29;16.20;71.60
74368;DHT22;64991;41.090;-8.118;2023-02-23T13:08:45;16.30;71.20
74368;DHT22;64991;41.090;-8.118;2023-02-23T13:13:59;16.30;71.20
74368;DHT22;64991;41.090;-8.118;2023-02-23T13:19:08;16.20;70.80
74368;DHT22;64991;41.090;-8.118;2023-02-23T13:24:17;16.30;71.20
74368;DHT22;64991;41.090;-8.118;2023-02-23T13:29:25;16.20;71.30
74368;DHT22;64991;41.090;-8.118;2023-02-23T13:34:35;16.10;71.40
74368;DHT22;64991;41.090;-8.118;2023-02-23T13:39:46;16.30;71.20
74368;DHT22;64991;41.090;-8.118;2023-02-23T13:44:57;16.20;71.60
74368;DHT22;64991;41.090;-8.118;2023-02-23T13:50:14;16.20;71.70
74368;DHT22;64991;41.090;-8.118;2023-02-23T13:55:32;16.20;71.00
74368;DHT22;64991;41.090;-8.118;2023-02-23T14:00:53;16.20;71.30
74368;DHT22;64991;41.090;-8.118;2023-02-23T14:06:09;16.10;70.30
74368;DHT22;64991;41.090;-8.118;2023-02-23T14:16:39;16.20;71.40
74368;DHT22;64991;41.090;-8.118;2023-02-23T14:21:44;16.20;71.80
74368;DHT22;64991;41.090;-8.118;2023-02-23T14:32:44;16.10;71.30
74368;DHT22;64991;41.090;-8.118;2023-02-23T14:37:53;16.10;71.20
74368;DHT22;64991;41.090;-8.118;2023-02-23T14:43:00;16.20;71.30
74368;DHT22;64991;41.090;-8.118;2023-02-23T14:48:05;16.20;70.60
74368;DHT22;64991;41.090;-8.118;2023-02-23T14:53:15;16.10;70.90
74368;DHT22;64991;41.090;-8.118;2023-02-23T14:58:21;16.20;71.30
74368;DHT22;64991;41.090;-8.118;2023-02-23T15:03:27;16.20;70.90
74368;DHT22;64991;41.090;-8.118;2023-02-23T15:08:31;16.20;71.00
74368;DHT22;64991;41.090;-8.118;2023-02-23T15:13:39;16.20;70.80
74368;DHT22;64991;41.090;-8.118;2023-02-23T15:18:46;16.20;70.70
74368;DHT22;64991;41.090;-8.118;2023-02-23T15:24:02;16.20;71.00
74368;DHT22;64991;41.090;-8.118;2023-02-23T15:29:10;16.20;71.00
74368;DHT22;64991;41.090;-8.118;2023-02-23T15:34:17;16.20;71.00
74368;DHT22;64991;41.090;-8.118;2023-02-23T15:39:27;16.10;70.60
74368;DHT22;64991;41.090;-8.118;2023-02-23T15:44:36;16.20;70.80
74368;DHT22;64991;41.090;-8.118;2023-02-23T15:49:47;16.10;71.30
74368;DHT22;64991;41.090;-8.118;2023-02-23T15:54:51;16.20;70.70
74368;DHT22;64991;41.090;-8.118;2023-02-23T16:00:04;16.10;70.70
74368;DHT22;64991;41.090;-8.118;2023-02-23T16:05:20;16.10;70.30
74368;DHT22;64991;41.090;-8.118;2023-02-23T16:10:27;16.20;70.70
74368;DHT22;64991;41.090;-8.118;2023-02-23T16:15:31;16.10;70.90
74368;DHT22;64991;41.090;-8.118;2023-02-23T16:20:38;16.10;70.50
74368;DHT22;64991;41.090;-8.118;2023-02-23T16:25:42;16.10;70.50
74368;DHT22;64991;41.090;-8.118;2023-02-23T16:30:49;16.10;70.90
74368;DHT22;64991;41.090;-8.118;2023-02-23T16:36:15;16.10;70.80
74368;DHT22;64991;41.090;-8.118;2023-02-23T16:41:22;16.10;70.40
74368;DHT22;64991;41.090;-8.118;2023-02-23T16:46:26;16.10;70.60
74368;DHT22;64991;41.090;-8.118;2023-02-23T16:51:32;16.10;70.80
74368;DHT22;64991;41.090;-8.118;2023-02-23T16:56:36;16.20;70.60
74368;DHT22;64991;41.090;-8.118;2023-02-23T17:01:40;16.20;70.50
74368;DHT22;64991;41.090;-8.118;2023-02-23T17:06:48;16.10;70.50
74368;DHT22;64991;41.090;-8.118;2023-02-23T17:11:58;16.10;70.30
74368;DHT22;64991;41.090;-8.118;2023-02-23T17:17:02;16.10;70.20
74368;DHT22;64991;41.090;-8.118;2023-02-23T17:22:07;16.20;70.60
74368;DHT22;64991;41.090;-8.118;2023-02-23T17:27:10;16.20;70.10
74368;DHT22;64991;41.090;-8.118;2023-02-23T17:32:14;16.10;70.60
74368;DHT22;64991;41.090;-8.118;2023-02-23T17:37:19;16.10;70.00
74368;DHT22;64991;41.090;-8.118;2023-02-23T17:42:27;16.10;70.50
74368;DHT22;64991;41.090;-8.118;2023-02-23T17:47:34;16.20;70.90
74368;DHT22;64991;41.090;-8.118;2023-02-23T17:52:41;16.10;70.40
74368;DHT22;64991;41.090;-8.118;2023-02-23T17:57:45;16.20;70.00
74368;DHT22;64991;41.090;-8.118;2023-02-23T18:02:48;16.20;70.60
74368;DHT22;64991;41.090;-8.118;2023-02-23T18:07:53;16.20;70.00
74368;DHT22;64991;41.090;-8.118;2023-02-23T18:12:57;16.10;70.50
74368;DHT22;64991;41.090;-8.118;2023-02-23T18:18:00;16.10;70.70
74368;DHT22;64991;41.090;-8.118;2023-02-23T18:23:05;16.20;69.80
74368;DHT22;64991;41.090;-8.118;2023-02-23T18:28:09;16.10;70.20
74368;DHT22;64991;41.090;-8.118;2023-02-23T18:33:13;16.10;70.30
74368;DHT22;64991;41.090;-8.118;2023-02-23T18:38:17;16.10;70.10
74368;DHT22;64991;41.090;-8.118;2023-02-23T18:43:21;16.10;70.20
74368;DHT22;64991;41.090;-8.118;2023-02-23T18:48:25;16.00;70.50
74368;DHT22;64991;41.090;-8.118;2023-02-23T18:53:29;16.00;70.60
74368;DHT22;64991;41.090;-8.118;2023-02-23T18:58:35;16.00;70.40
74368;DHT22;64991;41.090;-8.118;2023-02-23T19:03:39;16.00;70.30
74368;DHT22;64991;41.090;-8.118;2023-02-23T19:08:47;16.00;70.50
74368;DHT22;64991;41.090;-8.118;2023-02-23T19:13:55;16.00;70.80
74368;DHT22;64991;41.090;-8.118;2023-02-23T19:19:00;16.00;70.60
74368;DHT22;64991;41.090;-8.118;2023-02-23T19:24:06;16.00;70.80
74368;DHT22;64991;41.090;-8.118;2023-02-23T19:29:09;16.10;70.80
74368;DHT22;64991;41.090;-8.118;2023-02-23T19:34:13;16.00;70.80
74368;DHT22;64991;41.090;-8.118;2023-02-23T19:39:18;16.00;70.80
74368;DHT22;64991;41.090;-8.118;2023-02-23T19:44:21;16.10;70.60
74368;DHT22;64991;41.090;-8.118;2023-02-23T19:49:25;16.10;70.90
74368;DHT22;64991;41.090;-8.118;2023-02-23T19:54:30;16.00;70.50
74368;DHT22;64991;41.090;-8.118;2023-02-23T19:59:34;16.10;70.40
74368;DHT22;64991;41.090;-8.118;2023-02-23T20:04:38;16.00;70.40
74368;DHT22;64991;41.090;-8.118;2023-02-23T20:09:43;16.00;71.10
74368;DHT22;64991;41.090;-8.118;2023-02-23T20:14:46;16.10;70.10
74368;DHT22;64991;41.090;-8.118;2023-02-23T20:19:50;16.10;70.60
74368;DHT22;64991;41.090;-8.118;2023-02-23T20:24:55;16.00;70.50
74368;DHT22;64991;41.090;-8.118;2023-02-23T20:30:00;16.10;70.60
74368;DHT22;64991;41.090;-8.118;2023-02-23T20:35:04;16.10;69.90
74368;DHT22;64991;41.090;-8.118;2023-02-23T20:40:11;16.10;70.60
74368;DHT22;64991;41.090;-8.118;2023-02-23T20:45:20;16.10;70.40
74368;DHT22;64991;41.090;-8.118;2023-02-23T20:50:24;16.00;70.40
74368;DHT22;64991;41.090;-8.118;2023-02-23T20:55:36;16.00;70.20
74368;DHT22;64991;41.090;-8.118;2023-02-23T21:00:39;16.20;69.70
74368;DHT22;64991;41.090;-8.118;2023-02-23T21:05:43;16.00;69.90
74368;DHT22;64991;41.090;-8.118;2023-02-23T21:10:48;16.00;70.00
74368;DHT22;64991;41.090;-8.118;2023-02-23T21:15:53;16.00;69.90
74368;DHT22;64991;41.090;-8.118;2023-02-23T21:21:02;16.00;69.90
74368;DHT22;64991;41.090;-8.118;2023-02-23T21:26:12;16.10;70.00
74368;DHT22;64991;41.090;-8.118;2023-02-23T21:31:16;16.00;70.70
74368;DHT22;64991;41.090;-8.118;2023-02-23T21:36:20;16.10;69.90
74368;DHT22;64991;41.090;-8.118;2023-02-23T21:41:26;16.00;70.00
74368;DHT22;64991;41.090;-8.118;2023-02-23T21:46:34;16.00;69.70
74368;DHT22;64991;41.090;-8.118;2023-02-23T21:51:38;16.00;69.50
74368;DHT22;64991;41.090;-8.118;2023-02-23T21:56:43;16.00;69.80
74368;DHT22;64991;41.090;-8.118;2023-02-23T22:01:47;16.00;70.00
74368;DHT22;64991;41.090;-8.118;2023-02-23T22:06:50;16.00;69.60
74368;DHT22;64991;41.090;-8.118;2023-02-23T22:11:55;16.10;69.70
74368;DHT22;64991;41.090;-8.118;2023-02-23T22:16:59;16.10;69.50
74368;DHT22;64991;41.090;-8.118;2023-02-23T22:22:04;16.00;69.40
74368;DHT22;64991;41.090;-8.118;2023-02-23T22:27:09;16.00;69.60
74368;DHT22;64991;41.090;-8.118;2023-02-23T22:32:12;16.00;69.50
74368;DHT22;64991;41.090;-8.118;2023-02-23T22:37:18;16.00;69.50
74368;DHT22;64991;41.090;-8.118;2023-02-23T22:42:31;15.90;69.50
74368;DHT22;64991;41.090;-8.118;2023-02-23T22:47:36;16.00;69.40
74368;DHT22;64991;41.090;-8.118;2023-02-23T22:52:39;16.00;69.40
74368;DHT22;64991;41.090;-8.118;2023-02-23T22:57:45;16.00;69.60
74368;DHT22;64991;41.090;-8.118;2023-02-23T23:02:49;16.00;69.20
74368;DHT22;64991;41.090;-8.118;2023-02-23T23:07:53;16.00;69.30
74368;DHT22;64991;41.090;-8.118;2023-02-23T23:12:58;16.00;68.90
74368;DHT22;64991;41.090;-8.118;2023-02-23T23:18:03;16.00;69.00
74368;DHT22;64991;41.090;-8.118;2023-02-23T23:23:14;16.00;68.70
74368;DHT22;64991;41.090;-8.118;2023-02-23T23:28:20;15.90;68.90
74368;DHT22;64991;41.090;-8.118;2023-02-23T23:33:25;16.00;68.80
74368;DHT22;64991;41.090;-8.118;2023-02-23T23:38:31;15.90;68.80
74368;DHT22;64991;41.090;-8.118;2023-02-23T23:43:38;15.90;68.80
74368;DHT22;64991;41.090;-8.118;2023-02-23T23:48:43;16.00;68.70
74368;DHT22;64991;41.090;-8.118;2023-02-23T23:53:47;16.00;68.60
74368;DHT22;64991;41.090;-8.118;2023-02-23T23:58:53;15.90;68.50
